Time;durP1;ratioP1;P1;durP2;ratioP2;P2;SDS_P1;SDS_P2;PMS_P1;PMS_P2;Temp;Humidity;BMP_temperature;BMP_pressure;BME280_temperature;BME280_humidity;BME280_pressure;Samples;Min_cycle;Max_cycle;Signal;HPM_P1;HPM_P2
2023/10/02 00:00:42;;;;;;;5.47;2.00;;;;;;;14.13;99.17;99516.31;4470224;32;20084;-76
2023/10/02 00:03:10;;;;;;;7.07;1.92;;;;;;;14.09;99.43;99520.22;4469967;32;20096;-76
2023/10/02 00:05:50;;;;;;;3.47;1.65;;;;;;;14.04;100.00;99517.19;4470448;32;20120;-76
2023/10/02 00:11:35;;;;;;;6.60;2.10;;;;;;;13.80;100.00;99523.69;4469904;32;20411;-76
2023/10/02 00:17:03;;;;;;;4.93;1.83;;;;;;;13.67;100.00;99529.22;4482113;32;20430;-76
2023/10/02 00:19:38;;;;;;;6.40;2.30;;;;;;;13.76;100.00;99522.31;4485813;31;20430;-76
2023/10/02 00:22:06;;;;;;;4.75;1.85;;;;;;;13.73;100.00;99522.59;4485625;31;20103;-76
2023/10/02 00:24:40;;;;;;;4.07;1.75;;;;;;;13.68;100.00;99524.81;4485724;31;20142;-76
2023/10/02 00:27:09;;;;;;;3.72;1.92;;;;;;;13.70;100.00;99522.88;4485831;31;20084;-76
2023/10/02 00:29:58;;;;;;;4.65;2.00;;;;;;;13.68;100.00;99524.81;4484514;32;20161;-76
2023/10/02 00:32:34;;;;;;;4.55;2.15;;;;;;;13.60;100.00;99521.06;4485486;31;20085;-76
2023/10/02 00:35:03;;;;;;;5.87;2.05;;;;;;;13.53;100.00;99517.31;4485582;31;20135;-76
2023/10/02 00:40:25;;;;;;;5.45;2.05;;;;;;;13.52;100.00;99515.66;4485708;31;20089;-76
2023/10/02 00:42:58;;;;;;;8.00;2.22;;;;;;;13.50;100.00;99507.06;4485366;31;20434;-75
2023/10/02 00:45:38;;;;;;;4.85;1.65;;;;;;;13.53;100.00;99506.78;4485614;32;20189;-76
2023/10/02 00:51:00;;;;;;;5.10;2.12;;;;;;;13.53;100.00;99512.03;4485522;31;20488;-76
2023/10/02 00:53:39;;;;;;;5.50;2.00;;;;;;;13.50;100.00;99507.06;4479171;31;20167;-76
2023/10/02 00:56:24;;;;;;;4.55;1.75;;;;;;;13.47;100.00;99513.44;4469818;32;20080;-76
2023/10/02 00:59:00;;;;;;;4.07;1.92;;;;;;;13.46;100.00;99518.84;4469820;32;20089;-75
2023/10/02 01:01:29;;;;;;;5.43;2.20;;;;;;;13.44;100.00;99513.72;4469887;32;20402;-76
2023/10/02 01:04:11;;;;;;;4.68;1.80;;;;;;;13.39;100.00;99513.28;4469553;32;20111;-76
2023/10/02 01:09:30;;;;;;;5.70;1.98;;;;;;;13.37;100.00;99509.97;4468668;32;20092;-76
2023/10/02 01:11:58;;;;;;;7.03;1.87;;;;;;;13.31;100.00;99508.69;4469419;32;20149;-76
2023/10/02 01:17:22;;;;;;;5.68;2.20;;;;;;;13.17;100.00;99516.13;4484880;32;20127;-76
2023/10/02 01:19:53;;;;;;;2.83;1.83;;;;;;;13.09;100.00;99515.00;4484123;32;20104;-76
2023/10/02 01:22:26;;;;;;;4.62;2.40;;;;;;;13.04;100.00;99516.38;4484174;32;20213;-76
2023/10/02 01:25:15;;;;;;;6.53;1.87;;;;;;;12.95;100.00;99520.66;4485272;31;20152;-76
2023/10/02 01:27:47;;;;;;;4.62;1.70;;;;;;;12.98;100.00;99528.28;4485482;31;20183;-75
2023/10/02 01:30:18;;;;;;;6.30;2.08;;;;;;;12.96;100.00;99527.59;4485129;31;20146;-75
2023/10/02 01:33:21;;;;;;;5.25;1.60;;;;;;;13.05;100.00;99525.91;4485048;31;20532;-76
2023/10/02 01:35:54;;;;;;;9.25;1.70;;;;;;;13.01;100.00;99522.75;4485126;31;20157;-75
2023/10/02 01:38:32;;;;;;;4.07;1.85;;;;;;;13.02;100.00;99531.44;4485495;31;20128;-75
2023/10/02 01:41:10;;;;;;;4.85;1.67;;;;;;;12.95;100.00;99531.16;4485308;31;20457;-76
2023/10/02 01:43:44;;;;;;;3.75;1.70;;;;;;;12.85;100.00;99528.50;4484874;32;20097;-76
2023/10/02 01:46:22;;;;;;;7.87;1.73;;;;;;;12.93;100.00;99525.22;4485136;31;20096;-76
2023/10/02 01:48:50;;;;;;;7.37;2.20;;;;;;;12.95;100.00;99526.72;4482999;32;20115;-75
2023/10/02 01:51:20;;;;;;;3.28;1.60;;;;;;;12.89;100.00;99529.91;4485086;31;20093;-75
2023/10/02 01:53:51;;;;;;;4.90;1.85;;;;;;;12.89;100.00;99527.25;4476776;31;20092;-75
2023/10/02 01:56:20;;;;;;;3.30;1.90;;;;;;;12.85;100.00;99527.66;4469245;32;20607;-75
2023/10/02 01:58:51;;;;;;;5.40;1.90;;;;;;;12.85;100.00;99525.03;4469342;32;20445;-75
2023/10/02 02:01:21;;;;;;;3.95;2.50;;;;;;;12.69;100.00;99529.00;4469212;32;20112;-75
2023/10/02 02:03:50;;;;;;;7.45;2.10;;;;;;;12.69;100.00;99528.19;4469144;32;20489;-75
2023/10/02 02:06:21;;;;;;;7.43;1.98;;;;;;;12.68;100.00;99526.50;4469189;32;20116;-75
2023/10/02 02:08:53;;;;;;;5.32;2.15;;;;;;;12.62;100.00;99524.41;4469200;32;20080;-75
2023/10/02 02:11:22;;;;;;;7.07;2.08;;;;;;;12.58;100.00;99515.94;4469420;32;20455;-75
2023/10/02 02:13:51;;;;;;;5.10;2.37;;;;;;;12.59;100.00;99522.84;4467823;32;20105;-75
2023/10/02 02:16:38;;;;;;;9.40;2.28;;;;;;;12.57;100.00;99525.62;4478492;32;20118;-75
2023/10/02 02:19:07;;;;;;;4.60;1.75;;;;;;;12.56;100.00;99523.94;4485138;31;20145;-75
2023/10/02 02:21:36;;;;;;;6.15;1.80;;;;;;;12.58;100.00;99519.41;4484882;31;20109;-75
2023/10/02 02:24:06;;;;;;;5.32;1.90;;;;;;;12.57;100.00;99525.62;4484745;31;20114;-75
2023/10/02 02:26:39;;;;;;;5.10;2.03;;;;;;;12.52;100.00;99526.97;4485098;31;20477;-75
2023/10/02 02:29:26;;;;;;;4.70;1.62;;;;;;;12.40;100.00;99526.25;4484582;31;20140;-76
2023/10/02 02:31:55;;;;;;;6.97;2.50;;;;;;;12.48;100.00;99531.66;4484800;31;20119;-75
2023/10/02 02:34:23;;;;;;;4.55;1.77;;;;;;;12.45;100.00;99526.66;4484336;31;20394;-75
2023/10/02 02:36:54;;;;;;;4.95;2.20;;;;;;;12.38;100.00;99533.41;4484798;31;20088;-76
2023/10/02 02:39:22;;;;;;;4.70;2.17;;;;;;;12.37;100.00;99532.56;4484463;31;20157;-75
2023/10/02 02:42:08;;;;;;;7.35;2.12;;;;;;;12.37;100.00;99535.19;4484770;31;20618;-75
2023/10/02 02:44:46;;;;;;;6.10;1.65;;;;;;;12.35;100.00;99536.28;4484508;31;20100;-75
2023/10/02 02:47:16;;;;;;;6.10;2.15;;;;;;;12.32;100.00;99531.28;4484666;31;20517;-75
2023/10/02 02:49:48;;;;;;;3.95;1.87;;;;;;;12.38;100.00;99530.78;4484366;31;20114;-75
2023/10/02 02:52:27;;;;;;;3.53;1.92;;;;;;;12.29;100.00;99542.06;4484737;31;20084;-75
2023/10/02 02:54:59;;;;;;;6.03;2.00;;;;;;;12.29;100.00;99549.94;4467608;32;20795;-75
2023/10/02 02:57:31;;;;;;;6.37;2.37;;;;;;;12.31;100.00;99548.84;4469141;32;20154;-75
2023/10/02 03:02:52;;;;;;;12.40;2.60;;;;;;;12.29;100.00;99540.25;4468931;32;20100;-76
2023/10/02 03:05:22;;;;;;;5.50;2.20;;;;;;;12.27;100.00;99544.00;4467597;32;20187;-75
2023/10/02 03:07:54;;;;;;;4.93;1.77;;;;;;;12.24;100.00;99543.28;4468861;32;20573;-75
2023/10/02 03:10:24;;;;;;;5.57;1.90;;;;;;;12.20;100.00;99544.50;4468723;32;20454;-76
2023/10/02 03:12:54;;;;;;;7.20;2.60;;;;;;;12.12;100.00;99552.19;4467623;32;20415;-75
2023/10/02 03:15:45;;;;;;;8.57;2.10;;;;;;;12.18;100.00;99548.22;4471383;32;20535;-75
2023/10/02 03:18:23;;;;;;;5.03;2.30;;;;;;;12.21;100.00;99554.03;4484361;31;20111;-75
2023/10/02 03:20:52;;;;;;;2.33;1.42;;;;;;;12.28;100.00;99554.38;4484542;31;20080;-76
2023/10/02 03:23:20;;;;;;;9.32;2.00;;;;;;;12.35;100.00;99542.38;4484200;31;20128;-76
2023/10/02 03:25:47;;;;;;;4.12;1.70;;;;;;;12.30;100.00;99549.81;4484288;31;20153;-75
2023/10/02 03:28:33;;;;;;;4.60;1.77;;;;;;;12.29;100.00;99547.31;4484211;32;20510;-75
2023/10/02 03:31:01;;;;;;;5.68;2.37;;;;;;;12.31;100.00;99550.63;4484260;31;20080;-75
2023/10/02 03:33:31;;;;;;;4.85;2.12;;;;;;;12.31;100.00;99550.63;4484017;31;20509;-75
2023/10/02 03:36:09;;;;;;;8.90;2.22;;;;;;;12.33;100.00;99557.44;4483796;32;20145;-75
2023/10/02 03:38:44;;;;;;;4.32;1.67;;;;;;;12.34;100.00;99556.47;4483806;32;20088;-75
2023/10/02 03:41:13;;;;;;;6.25;2.58;;;;;;;12.38;100.00;99552.66;4484235;31;20107;-75
2023/10/02 03:43:46;;;;;;;7.37;2.65;;;;;;;12.45;100.00;99550.31;4483933;32;20092;-75
2023/10/02 03:46:35;;;;;;;5.22;1.92;;;;;;;12.53;100.00;99550.50;4483891;31;20111;-76
2023/10/02 03:49:06;;;;;;;5.60;2.00;;;;;;;12.49;100.00;99554.38;4483758;31;20088;-75
2023/10/02 03:51:36;;;;;;;8.38;1.98;;;;;;;12.52;100.00;99558.50;4483821;31;20093;-75
2023/10/02 03:54:18;;;;;;;6.70;2.30;;;;;;;12.60;100.00;99558.69;4473798;31;20158;-75
2023/10/02 03:56:49;;;;;;;3.28;1.87;;;;;;;12.82;100.00;99559.50;4468006;32;20114;-76
2023/10/02 03:59:22;;;;;;;6.45;2.20;;;;;;;12.97;100.00;99563.41;4467987;32;20127;-75
2023/10/02 04:01:50;;;;;;;4.62;2.20;;;;;;;13.00;100.00;99560.53;4468428;32;20153;-76
2023/10/02 04:06:47;;;;;;;4.10;2.00;;;;;;;13.08;100.00;99568.59;4481657;31;20107;-76
2023/10/02 04:11:45;;;;;;;5.43;2.30;;;;;;;13.13;100.00;99566.37;4482922;31;20076;-74
2023/10/02 04:14:23;;;;;;;5.37;2.33;;;;;;;13.22;100.00;99570.00;4485534;31;20092;-74
2023/10/02 04:17:08;;;;;;;12.27;2.35;;;;;;;13.32;100.00;99573.50;4483224;31;20100;-74
2023/10/02 04:19:43;;;;;;;6.85;2.62;;;;;;;13.47;100.00;99570.50;4480397;32;20100;-74
2023/10/02 04:22:22;;;;;;;4.53;2.00;;;;;;;13.59;100.00;99565.97;4483106;31;20153;-75
2023/10/02 04:24:58;;;;;;;11.77;2.55;;;;;;;13.69;100.00;99561.53;4481085;31;20241;-74
2023/10/02 04:32:51;;;;;;;4.82;1.98;;;;;;;13.68;100.00;99562.50;4484441;32;20390;-74
2023/10/02 04:38:09;;;;;;;8.40;2.37;;;;;;;13.82;100.00;99569.16;4477168;32;20088;-74
2023/10/02 04:40:38;;;;;;;6.22;2.20;;;;;;;13.83;100.00;99571.66;4483631;31;20137;-74
2023/10/02 04:43:19;;;;;;;6.70;2.70;;;;;;;13.89;100.00;99575.53;4483897;31;20123;-74
2023/10/02 04:46:08;;;;;;;4.70;2.12;;;;;;;13.90;100.00;99573.72;4483130;31;20116;-74
2023/10/02 04:48:39;;;;;;;6.20;2.10;;;;;;;13.75;100.00;99578.59;4483667;31;20096;-74
2023/10/02 04:51:12;;;;;;;5.97;2.00;;;;;;;13.70;100.00;99578.16;4483019;31;20661;-74
2023/10/02 04:53:45;;;;;;;8.90;2.83;;;;;;;13.74;100.00;99580.38;4477400;31;20100;-74
2023/10/02 04:58:50;;;;;;;;;;;;;;;13.75;100.00;99574.16;4482952;32;20359;-74
2023/10/02 05:01:34;;;;;;;18.37;2.72;;;;;;;13.82;100.00;99579.69;4470189;32;20338;-74
2023/10/02 05:04:03;;;;;;;11.30;2.47;;;;;;;13.84;100.00;99594.41;4475709;32;20128;-74
2023/10/02 05:09:25;;;;;;;11.25;3.10;;;;;;;13.81;100.00;99609.66;4479759;32;20540;-74
2023/10/02 05:11:55;;;;;;;12.25;3.30;;;;;;;13.83;100.00;99613.78;4466888;31;20566;-74
2023/10/02 05:14:28;;;;;;;6.30;2.83;;;;;;;13.91;100.00;99610.47;4471578;32;20097;-74
2023/10/02 05:20:00;;;;;;;10.50;3.58;;;;;;;14.01;100.00;99613.94;4471162;32;20096;-74
2023/10/02 05:22:31;;;;;;;7.40;2.92;;;;;;;14.13;100.00;99619.91;4464496;32;20101;-76
2023/10/02 05:25:00;;;;;;;6.50;2.70;;;;;;;14.15;100.00;99622.41;4475418;31;20126;-77
2023/10/02 05:27:30;;;;;;;11.40;2.97;;;;;;;14.11;100.00;99613.09;4476273;32;20154;-76
2023/10/02 05:30:12;;;;;;;8.77;2.97;;;;;;;14.14;100.00;99616.31;4483377;31;20116;-77
2023/10/02 05:32:41;;;;;;;7.97;3.25;;;;;;;14.26;100.00;99617.00;4481905;32;20118;-77
2023/10/02 05:37:45;;;;;;;11.95;3.08;;;;;;;14.54;100.00;99623.19;4479110;32;20171;-78
2023/10/02 05:43:09;;;;;;;12.48;3.33;;;;;;;14.88;100.00;99625.38;4474484;32;20450;-77
2023/10/02 05:48:27;;;;;;;7.50;3.05;;;;;;;15.19;100.00;99635.69;4471233;32;20093;-79
2023/10/02 05:50:57;;;;;;;9.57;4.05;;;;;;;15.34;100.00;99638.66;4475619;32;20092;-79
2023/10/02 05:53:26;;;;;;;13.40;3.35;;;;;;;15.48;100.00;99633.88;4474887;31;20123;-77
2023/10/02 05:55:57;;;;;;;14.20;3.67;;;;;;;15.68;100.00;99645.16;4480088;32;20114;-77
2023/10/02 05:58:31;;;;;;;30.02;3.67;;;;;;;15.85;100.00;99639.12;4475458;32;20135;-77
2023/10/02 06:01:06;;;;;;;32.50;3.72;;;;;;;15.94;100.00;99640.84;4476798;32;20112;-79
2023/10/02 06:03:36;;;;;;;28.85;4.55;;;;;;;16.10;100.00;99642.81;4472172;32;20119;-79
2023/10/02 06:06:21;;;;;;;10.35;3.15;;;;;;;16.31;99.81;99645.13;4480100;32;20097;-77
2023/10/02 06:09:12;;;;;;;5.90;2.75;;;;;;;16.52;98.70;99648.44;4474981;31;20108;-77
2023/10/02 06:14:27;;;;;;;8.68;2.58;;;;;;;16.77;93.86;99655.56;4466752;32;20123;-77
2023/10/02 06:16:58;;;;;;;7.72;2.42;;;;;;;16.91;92.59;99661.31;4471905;32;20093;-75
2023/10/02 06:19:25;;;;;;;8.27;2.60;;;;;;;16.94;92.04;99661.00;4471254;32;20135;-78
2023/10/02 06:24:29;;;;;;;6.25;2.50;;;;;;;17.32;91.27;99674.75;4473204;32;20115;-78
2023/10/02 06:27:13;;;;;;;7.10;2.22;;;;;;;17.54;89.00;99670.72;4469104;32;20085;-79
2023/10/02 06:29:47;;;;;;;5.35;2.45;;;;;;;17.85;87.43;99678.94;4470086;32;20105;-80
2023/10/02 06:32:23;;;;;;;4.70;2.33;;;;;;;18.06;86.97;99682.97;4469409;32;20563;-77
2023/10/02 06:34:51;;;;;;;5.05;2.35;;;;;;;18.42;84.28;99672.09;4472649;32;20116;-81
2023/10/02 06:37:24;;;;;;;9.48;2.12;;;;;;;18.71;82.79;99676.03;4469344;32;20135;-78
2023/10/02 06:40:06;;;;;;;10.70;2.55;;;;;;;18.90;81.65;99669.59;4469041;31;20093;-80
2023/10/02 06:42:48;;;;;;;10.45;3.20;;;;;;;19.16;80.75;99685.28;4471404;32;20097;-79
2023/10/02 06:45:20;;;;;;;11.60;3.30;;;;;;;19.25;82.73;99678.94;4471454;32;20104;-78
2023/10/02 06:47:48;;;;;;;20.52;4.95;;;;;;;19.44;83.68;99676.88;4473850;32;20092;-79
2023/10/02 06:50:31;;;;;;;34.90;5.32;;;;;;;19.45;88.21;99675.91;4469291;32;20536;-78
2023/10/02 06:52:59;;;;;;;21.00;5.40;;;;;;;19.52;87.30;99673.41;4471361;32;20108;-81
2023/10/02 06:55:32;;;;;;;25.30;5.37;;;;;;;19.41;86.62;99677.22;4473047;32;20092;-80
2023/10/02 06:58:02;;;;;;;21.05;4.37;;;;;;;19.45;86.82;99675.91;4471127;32;20088;-79
2023/10/02 07:03:17;;;;;;;15.13;4.50;;;;;;;19.66;85.02;99681.44;4473359;31;20100;-79
2023/10/02 07:05:45;;;;;;;16.15;4.95;;;;;;;19.50;85.36;99681.53;4472711;32;20935;-75
2023/10/02 07:08:18;;;;;;;21.95;5.20;;;;;;;19.66;83.63;99681.44;4472306;31;20092;-79
2023/10/02 07:10:47;;;;;;;12.73;4.62;;;;;;;19.55;82.73;99686.34;4469976;32;20115;-83
2023/10/02 07:13:23;;;;;;;18.00;4.78;;;;;;;19.46;84.71;99693.50;4473203;32;20108;-82
2023/10/02 07:15:56;;;;;;;22.58;4.72;;;;;;;19.64;83.17;99678.12;4469702;32;20651;-84
2023/10/02 07:18:37;;;;;;;13.07;4.82;;;;;;;19.51;85.42;99693.81;4472597;32;20111;-81
2023/10/02 07:21:07;;;;;;;12.73;4.17;;;;;;;19.58;83.48;99689.47;4473545;31;20116;-83
2023/10/02 07:23:38;;;;;;;14.93;4.53;;;;;;;19.63;84.01;99692.44;4469988;32;20163;-81
2023/10/02 07:26:14;;;;;;;14.57;4.70;;;;;;;19.74;83.25;99693.03;4466227;32;20099;-84
2023/10/02 07:28:50;;;;;;;10.63;3.65;;;;;;;19.52;83.46;99690.16;4471019;32;20100;-88
2023/10/02 07:31:21;;;;;;;11.88;4.37;;;;;;;19.60;80.28;99697.28;4471613;31;20084;-83
2023/10/02 07:33:54;;;;;;;14.57;3.62;;;;;;;19.83;81.27;99694.69;4473268;31;20079;-80
2023/10/02 07:36:26;;;;;;;19.52;4.55;;;;;;;20.02;81.30;99702.22;4471950;32;20172;-81
2023/10/02 07:38:54;;;;;;;24.33;4.60;;;;;;;20.03;79.53;99692.44;4469941;32;20108;-80
2023/10/02 07:41:25;;;;;;;15.25;3.90;;;;;;;20.09;80.49;99696.19;4468224;32;21012;-80
2023/10/02 07:44:07;;;;;;;17.80;4.95;;;;;;;20.14;78.83;99694.69;4465208;32;20096;-81
2023/10/02 07:46:36;;;;;;;13.38;3.58;;;;;;;20.25;79.95;99701.41;4470972;32;20196;-80
2023/10/02 07:49:05;;;;;;;17.65;3.70;;;;;;;20.17;78.91;99699.66;4471413;32;20092;-79
2023/10/02 07:51:39;;;;;;;13.23;4.12;;;;;;;20.34;79.72;99705.69;4472183;32;20850;-81
2023/10/02 07:54:07;;;;;;;12.68;4.00;;;;;;;20.42;78.66;99712.75;4473625;32;20119;-79
2023/10/02 07:56:35;;;;;;;16.75;4.40;;;;;;;20.16;78.09;99711.28;4474770;32;20167;-77
2023/10/02 07:59:03;;;;;;;15.27;4.00;;;;;;;20.31;77.48;99722.00;4475717;32;20105;-81
2023/10/02 08:01:33;;;;;;;11.70;3.40;;;;;;;20.48;75.85;99719.22;4472864;32;20136;-81
2023/10/02 08:04:02;;;;;;;15.95;3.65;;;;;;;20.54;77.74;99707.84;4475331;31;20485;-81
2023/10/02 08:06:36;;;;;;;12.02;4.15;;;;;;;20.49;75.95;99712.91;4468771;32;20088;-81
2023/10/02 08:11:53;;;;;;;9.25;3.85;;;;;;;20.28;77.51;99716.22;4476102;31;20156;-81
2023/10/02 08:14:41;;;;;;;12.25;3.60;;;;;;;20.48;75.90;99720.03;4480655;31;20564;-82
2023/10/02 08:20:15;;;;;;;10.52;3.83;;;;;;;20.84;73.55;99722.09;4468880;32;20104;-81
2023/10/02 08:22:48;;;;;;;10.18;3.53;;;;;;;20.99;73.24;99716.00;4474204;32;20115;-82
2023/10/02 08:25:16;;;;;;;16.87;3.78;;;;;;;21.04;72.04;99722.41;4473474;31;20491;-80
2023/10/02 08:27:44;;;;;;;9.90;2.83;;;;;;;21.25;72.26;99720.88;4471956;32;20152;-80
2023/10/02 08:33:09;;;;;;;10.63;3.10;;;;;;;21.15;68.79;99720.31;4475630;32;20116;-79
2023/10/02 08:35:58;;;;;;;8.88;2.85;;;;;;;21.22;69.69;99718.59;4468598;32;20104;-78
2023/10/02 08:38:26;;;;;;;8.10;2.62;;;;;;;21.18;71.89;99712.81;4474084;32;20143;-78
2023/10/02 08:40:59;;;;;;;15.73;4.45;;;;;;;21.12;68.97;99712.69;4467190;32;20490;-79
2023/10/02 08:43:29;;;;;;;6.03;3.00;;;;;;;21.25;67.50;99710.22;4475241;31;20140;-80
2023/10/02 08:45:57;;;;;;;13.82;3.30;;;;;;;21.29;68.98;99711.50;4477176;31;20106;-79
2023/10/02 08:48:25;;;;;;;12.55;3.10;;;;;;;20.90;71.04;99708.06;4473840;32;20096;-79
2023/10/02 08:50:57;;;;;;;12.77;3.65;;;;;;;21.00;68.32;99710.50;4470759;31;20100;-78
2023/10/02 08:53:26;;;;;;;8.20;3.30;;;;;;;21.19;70.18;99701.13;4469703;31;20092;-78
2023/10/02 08:56:21;;;;;;;15.88;3.67;;;;;;;21.28;70.03;99707.19;4474995;32;20228;-78
2023/10/02 08:59:15;;;;;;;12.77;3.60;;;;;;;21.13;68.55;99704.50;4473834;31;20088;-79
2023/10/02 09:01:38;;;;;;;9.20;2.42;;;;;;;21.25;68.47;99707.56;4473296;31;20123;-77
2023/10/02 09:06:59;;;;;;;11.10;3.40;;;;;;;21.47;66.98;99713.81;4471148;31;20461;-77
2023/10/02 09:09:36;;;;;;;13.82;3.25;;;;;;;21.78;64.30;99718.94;4472615;32;20088;-78
2023/10/02 09:12:08;;;;;;;8.52;2.67;;;;;;;21.96;60.17;99710.53;4472536;31;20225;-78
2023/10/02 09:14:40;;;;;;;7.85;3.25;;;;;;;22.12;59.97;99714.81;4471666;32;20439;-78
2023/10/02 09:17:16;;;;;;;22.42;3.30;;;;;;;22.12;62.05;99712.16;4473234;32;20104;-80
2023/10/02 09:19:53;;;;;;;12.60;2.83;;;;;;;22.09;62.78;99709.03;4469624;32;20144;-78
2023/10/02 09:22:23;;;;;;;6.65;2.30;;;;;;;22.41;61.46;99701.59;4468434;31;20127;-77
2023/10/02 09:25:26;;;;;;;10.18;2.45;;;;;;;22.50;58.48;99705.78;4474337;31;20119;-78
2023/10/02 09:28:04;;;;;;;10.63;2.72;;;;;;;22.60;57.19;99705.44;4474314;32;20141;-78
2023/10/02 09:33:14;;;;;;;7.80;2.10;;;;;;;22.23;52.43;99700.16;4471785;32;20115;-77
2023/10/02 09:35:52;;;;;;;14.13;2.37;;;;;;;22.07;51.69;99706.53;4466848;32;20907;-79
2023/10/02 09:38:46;;;;;;;8.02;2.67;;;;;;;22.16;55.93;99693.91;4467328;32;20120;-78
2023/10/02 09:41:15;;;;;;;9.10;2.17;;;;;;;22.22;54.95;99695.81;4457178;32;20104;-79
2023/10/02 09:43:44;;;;;;;7.10;3.97;;;;;;;22.09;52.38;99693.84;4469922;31;20125;-80
2023/10/02 09:46:16;;;;;;;6.82;2.58;;;;;;;22.34;55.89;99696.16;4472876;31;20148;-80
2023/10/02 09:51:26;;;;;;;5.72;2.05;;;;;;;22.47;51.69;99701.63;4466860;32;20099;-82
2023/10/02 09:54:05;;;;;;;6.65;2.72;;;;;;;22.48;53.53;99703.31;4470674;32;20085;-81
2023/10/02 09:57:05;;;;;;;6.62;2.67;;;;;;;22.28;56.29;99702.25;4466127;32;20483;-81
2023/10/02 09:59:48;;;;;;;6.47;2.42;;;;;;;22.46;56.36;99699.16;4399937;32;20445;-79
2023/10/02 10:05:22;;;;;;;9.35;2.42;;;;;;;22.55;56.08;99694.53;4397973;32;20121;-78
2023/10/02 10:07:58;;;;;;;6.65;3.05;;;;;;;22.26;58.70;99688.28;4400051;32;20245;-80
2023/10/02 10:10:48;;;;;;;7.60;2.58;;;;;;;22.21;58.21;99690.66;4396488;32;20114;-79
2023/10/02 10:13:46;;;;;;;13.68;3.35;;;;;;;22.43;56.37;99688.87;4397797;32;20183;-79
2023/10/02 10:16:34;;;;;;;6.93;2.25;;;;;;;22.33;56.77;99686.50;4403552;32;20530;-80
2023/10/02 10:25:22;;;;;;;8.45;2.70;;;;;;;22.79;55.34;99687.94;4402264;32;20125;-79
2023/10/02 10:28:04;;;;;;;9.98;3.95;;;;;;;22.77;55.33;99690.81;4402398;32;20871;-77
2023/10/02 10:35:52;;;;;;;6.25;2.12;;;;;;;22.95;55.77;99678.78;4410530;31;20192;-75
2023/10/02 10:38:26;;;;;;;9.50;2.70;;;;;;;23.02;56.07;99677.78;4478214;31;20122;-75
2023/10/02 10:41:00;;;;;;;6.43;2.53;;;;;;;22.84;55.22;99672.13;4479976;31;20195;-74
2023/10/02 10:43:44;;;;;;;7.78;2.30;;;;;;;23.00;53.67;99673.69;4475471;32;20484;-74
2023/10/02 10:46:17;;;;;;;7.40;2.45;;;;;;;23.03;53.21;99667.94;4476033;32;20164;-75
2023/10/02 10:48:48;;;;;;;6.97;2.58;;;;;;;23.13;53.90;99668.44;4479838;32;20115;-76
2023/10/02 10:51:22;;;;;;;8.50;2.25;;;;;;;23.38;52.84;99665.28;4479938;32;20510;-76
2023/10/02 10:54:00;;;;;;;7.47;2.50;;;;;;;23.49;54.62;99662.03;4476673;32;20169;-75
2023/10/02 10:56:28;;;;;;;5.10;2.60;;;;;;;23.45;54.23;99657.28;4486248;31;20128;-75
2023/10/02 10:59:10;;;;;;;7.20;2.47;;;;;;;23.24;53.16;99659.06;4479069;31;20096;-75
2023/10/02 11:02:09;;;;;;;6.30;2.08;;;;;;;23.39;52.62;99653.53;4476701;31;20118;-74
2023/10/02 11:04:49;;;;;;;10.82;2.67;;;;;;;23.45;52.65;99647.44;4476964;31;20131;-74
2023/10/02 11:07:22;;;;;;;6.03;2.40;;;;;;;23.42;52.45;99645.13;4478349;31;20093;-75
2023/10/02 11:10:16;;;;;;;5.30;2.37;;;;;;;23.32;52.63;99634.81;4476082;31;20092;-75
2023/10/02 11:12:59;;;;;;;6.75;3.22;;;;;;;23.04;53.67;99640.19;4481588;32;20438;-74
2023/10/02 11:15:46;;;;;;;6.40;2.75;;;;;;;23.32;51.77;99639.34;4476443;32;20514;-74
2023/10/02 11:18:18;;;;;;;5.20;2.25;;;;;;;23.32;52.55;99639.34;4477596;32;20104;-74
2023/10/02 11:20:51;;;;;;;9.55;3.53;;;;;;;23.29;52.00;99632.53;4482257;31;20476;-73
2023/10/02 11:23:40;;;;;;;13.27;2.75;;;;;;;23.47;51.85;99636.53;4481728;31;20161;-74
2023/10/02 11:26:13;;;;;;;5.37;1.90;;;;;;;23.76;53.09;99627.34;4475733;32;20122;-74
2023/10/02 11:28:44;;;;;;;7.32;2.30;;;;;;;23.60;52.60;99631.22;4481132;31;20854;-74
2023/10/02 11:31:32;;;;;;;5.22;2.25;;;;;;;23.44;52.65;99626.22;4484015;31;20084;-73
2023/10/02 11:34:08;;;;;;;5.43;2.40;;;;;;;23.42;51.40;99626.41;4479610;31;20123;-73
2023/10/02 11:36:56;;;;;;;8.15;2.20;;;;;;;23.56;52.94;99630.78;4478199;32;20113;-74
2023/10/02 11:39:33;;;;;;;4.53;2.20;;;;;;;23.68;53.07;99627.53;4472527;31;20089;-74
2023/10/02 11:42:05;;;;;;;7.68;2.20;;;;;;;23.87;52.90;99625.97;4482258;31;20084;-74
2023/10/02 11:44:33;;;;;;;4.93;2.47;;;;;;;23.55;52.20;99623.78;4484701;31;20089;-74
2023/10/02 11:47:01;;;;;;;5.28;2.25;;;;;;;23.77;51.58;99615.62;4477455;32;20092;-74
2023/10/02 11:49:29;;;;;;;4.30;1.98;;;;;;;23.95;52.58;99616.91;4460905;31;20108;-74
2023/10/02 11:52:04;;;;;;;6.07;3.05;;;;;;;23.89;51.33;99614.03;4477233;32;20544;-75
2023/10/02 11:54:41;;;;;;;5.53;2.40;;;;;;;24.03;52.40;99611.38;4479844;32;20097;-74
2023/10/02 11:57:12;;;;;;;4.72;2.47;;;;;;;24.17;53.02;99601.50;4458427;31;20302;-75
2023/10/02 11:59:43;;;;;;;14.80;3.10;;;;;;;24.43;54.66;99603.34;4469510;31;20081;-75
2023/10/02 12:02:11;;;;;;;8.50;1.95;;;;;;;24.64;53.98;99596.16;4463923;31;20131;-77
2023/10/02 12:04:40;;;;;;;4.65;1.98;;;;;;;24.40;51.82;99593.88;4475912;31;20132;-77
2023/10/02 12:07:10;;;;;;;4.45;2.20;;;;;;;24.03;52.00;99598.00;4463326;32;20081;-79
2023/10/02 12:09:38;;;;;;;4.57;2.45;;;;;;;24.03;52.22;99603.34;4474882;31;20085;-80
2023/10/02 12:12:11;;;;;;;3.95;2.12;;;;;;;24.10;52.61;99593.47;4461993;32;20443;-79
2023/10/02 12:14:42;;;;;;;13.27;2.35;;;;;;;24.05;50.86;99595.94;4471833;31;20119;-79
2023/10/02 12:17:14;;;;;;;63.08;4.78;;;;;;;24.08;50.65;99585.62;4474103;32;20100;-80
2023/10/02 12:19:44;;;;;;;7.85;2.08;;;;;;;24.12;52.22;99586.06;4473516;31;20085;-79
2023/10/02 12:22:13;;;;;;;4.72;2.25;;;;;;;24.36;51.19;99592.66;4482920;31;20141;-78
2023/10/02 12:24:41;;;;;;;5.97;2.03;;;;;;;24.55;50.84;99580.25;4484499;31;20152;-77
2023/10/02 12:27:12;;;;;;;6.32;1.95;;;;;;;24.62;51.19;99583.78;4484403;31;20125;-78
2023/10/02 12:29:40;;;;;;;5.30;2.08;;;;;;;24.60;51.15;99583.19;4486087;31;20507;-78
2023/10/02 12:32:09;;;;;;;7.00;2.10;;;;;;;24.51;51.18;99576.38;4481586;31;20537;-78
2023/10/02 12:34:41;;;;;;;8.07;2.40;;;;;;;24.57;50.58;99580.03;4484243;31;20573;-77
2023/10/02 12:37:09;;;;;;;4.47;1.70;;;;;;;24.69;49.76;99569.53;4483256;31;22132;-79
2023/10/02 12:39:37;;;;;;;5.45;2.00;;;;;;;24.68;50.04;99567.88;4469262;32;20080;-78
2023/10/02 12:42:05;;;;;;;6.60;2.10;;;;;;;24.68;49.86;99563.38;4484321;31;20096;-77
2023/10/02 12:44:36;;;;;;;3.80;1.80;;;;;;;24.54;50.35;99565.22;4489845;31;20099;-77
2023/10/02 12:47:05;;;;;;;3.37;1.87;;;;;;;24.68;49.25;99563.38;4487609;31;20091;-76
2023/10/02 12:49:35;;;;;;;5.32;2.00;;;;;;;24.67;49.80;99566.25;4489109;31;20123;-78
2023/10/02 12:52:02;;;;;;;4.82;1.90;;;;;;;24.47;49.35;99560.88;4486709;31;20113;-77
2023/10/02 12:54:30;;;;;;;4.53;1.95;;;;;;;24.47;51.15;99560.88;4484766;31;20092;-78
2023/10/02 12:56:59;;;;;;;4.85;2.15;;;;;;;24.60;49.29;99558.22;4478975;31;20097;-77
2023/10/02 12:59:27;;;;;;;4.22;1.83;;;;;;;24.68;48.77;99554.50;4484065;31;20598;-78
2023/10/02 13:01:55;;;;;;;4.00;2.00;;;;;;;24.49;50.08;99558.84;4487489;31;20135;-78
2023/10/02 13:04:24;;;;;;;4.45;2.03;;;;;;;24.58;49.78;99553.06;4480749;31;20128;-80
2023/10/02 13:06:53;;;;;;;6.90;2.00;;;;;;;24.72;49.63;99545.00;4480704;31;20469;-79
2023/10/02 13:09:21;;;;;;;4.40;1.80;;;;;;;24.69;48.28;99542.75;4482564;32;20163;-81
2023/10/02 13:11:51;;;;;;;3.97;2.05;;;;;;;24.73;48.78;99543.97;4479703;31;20211;-82
2023/10/02 13:14:19;;;;;;;7.07;2.05;;;;;;;24.73;48.68;99546.66;4475183;31;20085;-82
2023/10/02 13:16:48;;;;;;;6.10;2.15;;;;;;;25.03;49.93;99538.13;4475516;32;20123;-84
2023/10/02 13:19:17;;;;;;;5.55;2.28;;;;;;;25.18;48.00;99535.13;4477466;31;20096;-81
2023/10/02 13:21:52;;;;;;;5.28;2.35;;;;;;;25.22;48.03;99531.81;4476148;32;20096;-82
2023/10/02 13:24:23;;;;;;;;;;;;;;;25.38;47.13;99529.72;4475913;32;20169;-82
2023/10/02 13:26:54;;;;;;;4.50;2.53;;;;;;;25.35;48.26;99535.50;4473525;32;19992;-81
2023/10/02 13:29:24;;;;;;;4.07;1.98;;;;;;;25.13;47.53;99533.09;4479341;31;20146;-81